Spirit — WDF4892 — position and weather

sailwx.info

Track history (hours):
 
Tides and Currents Weather Stations Pressure Air Temp Water Temp Dewpoint Dewpoint Depression Visibility Wind Speed Wind Dir Waves Ship Positions

Spirit

Owner: Canal Barge Company, Inc., Belle Chasse, LA. More information available from US FCC via Universal Licensing System and Coast Guard Vessel Documentation Center.

Last reported at 2018-May-24 03:17 UTC. Time now 2018-May-26 10:16 UTC.
Position N 29°42' W 095°01'.

Length 22 m; draft 2.5 m.

Type: Towing. MMSI: 367456950.

Date/timePositionNaut miles runAvg speedWind from/ knotsBaromVisibWave heightAir tempDewpointWater temp
2018-May-24 03:17N 29°42' W 095°01'2 5.5
2018-May-24 03:00N 29°42' W 094°60'3 7.0
2018-May-24 02:30N 29°39' W 094°58'4 7.6
2018-May-24 01:57N 29°35' W 094°56'21 4.5
2018-May-23 21:14N 29°30' W 094°32'2 6.2
2018-May-23 20:51N 29°31' W 094°30'1 1.8
2018-May-23 20:14N 29°32' W 094°29'1 0.6
2018-May-23 19:22N 29°33' W 094°28'2 5.4
2018-May-23 19:00N 29°34' W 094°27'3 4.9
2018-May-23 18:24N 29°36' W 094°24'2 5.8
2018-May-23 18:00N 29°37' W 094°22'4 6.9
2018-May-23 17:29N 29°38' W 094°18'3 6.7
2018-May-23 17:00N 29°40' W 094°15'3 6.7
2018-May-23 16:30N 29°41' W 094°11'3 6.2
2018-May-23 16:00N 29°42' W 094°08'3 6.8
2018-May-23 15:30N 29°45' W 094°05'4 7.2
2018-May-23 15:00N 29°47' W 094°02'3 6.6
2018-May-23 14:30N 29°49' W 093°59'1 1.1
2018-May-23 13:58N 29°49' W 093°58'0 0.0
2018-May-23 13:28N 29°49' W 093°58'0 0.0
2018-May-23 12:58N 29°49' W 093°58'1 2.3
2018-May-23 12:30N 29°50' W 093°57'4 7.3
2018-May-23 12:00N 29°53' W 093°55'4 7.8
2018-May-23 11:30N 29°56' W 093°52'3 6.3
2018-May-23 11:00N 29°59' W 093°50'3 6.6
2018-May-23 10:30N 29°60' W 093°46'4 6.2
2018-May-23 09:53N 30°03' W 093°44'3 5.3
2018-May-23 09:25N 30°04' W 093°41'8 5.5
2018-May-23 07:58N 30°04' W 093°32'2 4.3
2018-May-23 07:30N 30°04' W 093°29'3 5.5
2018-May-23 07:00N 30°04' W 093°26'3 5.8
2018-May-23 06:30N 30°04' W 093°23'2 4.5
2018-May-23 06:00N 30°04' W 093°21'1 1.9
2018-May-23 05:31N 30°05' W 093°20'2 3.2
2018-May-23 04:59N 30°06' W 093°19'0 0.0
2018-May-23 04:29N 30°06' W 093°19'0 0.0
2018-May-23 03:57N 30°06' W 093°19'0 0.0
2018-May-23 03:29N 30°06' W 093°19'0 0.0
2018-May-23 02:59N 30°06' W 093°19'0 0.0
2018-May-23 02:29N 30°06' W 093°19'1 1.8
2018-May-23 02:01N 30°06' W 093°18'1 2.0
2018-May-23 01:31N 30°05' W 093°17'1 1.6
2018-May-23 00:59N 30°04' W 093°16'0 0.0
2018-May-23 00:28N 30°04' W 093°16'0 0.0
2018-May-22 23:59N 30°04' W 093°16'0 0.0
2018-May-22 23:26N 30°04' W 093°16'0 0.0
2018-May-22 22:58N 30°04' W 093°16'0 0.0
2018-May-22 22:26N 30°04' W 093°16'0 0.0
2018-May-22 21:59N 30°04' W 093°16'0 0.0
2018-May-22 21:28N 30°04' W 093°16'0 0.0
2018-May-22 20:58N 30°04' W 093°16'0 0.0
2018-May-22 20:28N 30°04' W 093°16'0 0.0
2018-May-22 19:59N 30°04' W 093°16'0 0.0
2018-May-22 19:28N 30°04' W 093°16'0 0.1
2018-May-22 18:58N 30°04' W 093°16'0 0.0
2018-May-22 18:29N 30°04' W 093°16'0 0.0
2018-May-22 17:59N 30°04' W 093°16'0 0.0
2018-May-22 17:29N 30°04' W 093°16'0 0.0
2018-May-22 16:58N 30°04' W 093°16'0 0.0
2018-May-22 16:28N 30°04' W 093°16'0 0.0
2018-May-22 15:58N 30°04' W 093°16'0 0.0
2018-May-22 15:28N 30°04' W 093°16'0 0.0
2018-May-22 14:58N 30°04' W 093°16'0 0.0
2018-May-22 14:28N 30°04' W 093°16'0 0.0
2018-May-22 13:58N 30°04' W 093°16'0 0.0
2018-May-22 13:28N 30°04' W 093°16'0 0.1
2018-May-22 12:59N 30°04' W 093°16'0 0.0
2018-May-22 12:28N 30°04' W 093°16'0 0.0
2018-May-22 11:58N 30°04' W 093°16'0 0.0
2018-May-22 11:25N 30°04' W 093°16'1 1.4
2018-May-22 10:52N 30°04' W 093°16'1 3.1
2018-May-22 10:30N 30°03' W 093°16'0 0.1
2018-May-22 09:58N 30°03' W 093°16'0 0.0
2018-May-22 09:28N 30°03' W 093°16'0 0.0
2018-May-22 08:58N 30°03' W 093°16'0 0.0
2018-May-22 08:28N 30°03' W 093°16'0 0.0
2018-May-22 07:58N 30°03' W 093°16'0 0.0
2018-May-22 07:28N 30°03' W 093°16'0 0.0
2018-May-22 06:58N 30°03' W 093°16'0 0.1
2018-May-22 06:28N 30°03' W 093°16'2 3.7
2018-May-22 06:00N 30°01' W 093°14'2 4.8
2018-May-22 05:30N 29°59' W 093°13'2 4.8
2018-May-22 05:00N 29°58' W 093°11'3 4.0
2018-May-22 04:21N 29°56' W 093°08'  
Track history (hours):
 
Tides and Currents Weather Stations Pressure Air Temp Water Temp Dewpoint Dewpoint Depression Visibility Wind Speed Wind Dir Waves Ship Positions

Spirit

Owner: Canal Barge Company, Inc., Belle Chasse, LA. More information available from US FCC via Universal Licensing System and Coast Guard Vessel Documentation Center.

Last reported at 2018-May-24 03:17 UTC. Time now 2018-May-26 10:16 UTC.
Position N 29°42' W 095°01'.

Length 22 m; draft 2.5 m.

Type: Towing. MMSI: 367456950.

Date/timePositionNaut miles runAvg speedWind from/ knotsBaromVisibWave heightAir tempDewpointWater temp
2018-May-24 03:17N 29°42' W 095°01'2 5.5
2018-May-24 03:00N 29°42' W 094°60'3 7.0
2018-May-24 02:30N 29°39' W 094°58'4 7.6
2018-May-24 01:57N 29°35' W 094°56'21 4.5
2018-May-23 21:14N 29°30' W 094°32'2 6.2
2018-May-23 20:51N 29°31' W 094°30'1 1.8
2018-May-23 20:14N 29°32' W 094°29'1 0.6
2018-May-23 19:22N 29°33' W 094°28'2 5.4
2018-May-23 19:00N 29°34' W 094°27'3 4.9
2018-May-23 18:24N 29°36' W 094°24'2 5.8
2018-May-23 18:00N 29°37' W 094°22'4 6.9
2018-May-23 17:29N 29°38' W 094°18'3 6.7
2018-May-23 17:00N 29°40' W 094°15'3 6.7
2018-May-23 16:30N 29°41' W 094°11'3 6.2
2018-May-23 16:00N 29°42' W 094°08'3 6.8
2018-May-23 15:30N 29°45' W 094°05'4 7.2
2018-May-23 15:00N 29°47' W 094°02'3 6.6
2018-May-23 14:30N 29°49' W 093°59'1 1.1
2018-May-23 13:58N 29°49' W 093°58'0 0.0
2018-May-23 13:28N 29°49' W 093°58'0 0.0
2018-May-23 12:58N 29°49' W 093°58'1 2.3
2018-May-23 12:30N 29°50' W 093°57'4 7.3
2018-May-23 12:00N 29°53' W 093°55'4 7.8
2018-May-23 11:30N 29°56' W 093°52'3 6.3
2018-May-23 11:00N 29°59' W 093°50'3 6.6
2018-May-23 10:30N 29°60' W 093°46'4 6.2
2018-May-23 09:53N 30°03' W 093°44'3 5.3
2018-May-23 09:25N 30°04' W 093°41'8 5.5
2018-May-23 07:58N 30°04' W 093°32'2 4.3
2018-May-23 07:30N 30°04' W 093°29'3 5.5
2018-May-23 07:00N 30°04' W 093°26'3 5.8
2018-May-23 06:30N 30°04' W 093°23'2 4.5
2018-May-23 06:00N 30°04' W 093°21'1 1.9
2018-May-23 05:31N 30°05' W 093°20'2 3.2
2018-May-23 04:59N 30°06' W 093°19'0 0.0
2018-May-23 04:29N 30°06' W 093°19'0 0.0
2018-May-23 03:57N 30°06' W 093°19'0 0.0
2018-May-23 03:29N 30°06' W 093°19'0 0.0
2018-May-23 02:59N 30°06' W 093°19'0 0.0
2018-May-23 02:29N 30°06' W 093°19'1 1.8
2018-May-23 02:01N 30°06' W 093°18'1 2.0
2018-May-23 01:31N 30°05' W 093°17'1 1.6
2018-May-23 00:59N 30°04' W 093°16'0 0.0
2018-May-23 00:28N 30°04' W 093°16'0 0.0
2018-May-22 23:59N 30°04' W 093°16'0 0.0
2018-May-22 23:26N 30°04' W 093°16'0 0.0
2018-May-22 22:58N 30°04' W 093°16'0 0.0
2018-May-22 22:26N 30°04' W 093°16'0 0.0
2018-May-22 21:59N 30°04' W 093°16'0 0.0
2018-May-22 21:28N 30°04' W 093°16'0 0.0
2018-May-22 20:58N 30°04' W 093°16'0 0.0
2018-May-22 20:28N 30°04' W 093°16'0 0.0
2018-May-22 19:59N 30°04' W 093°16'0 0.0
2018-May-22 19:28N 30°04' W 093°16'0 0.1
2018-May-22 18:58N 30°04' W 093°16'0 0.0
2018-May-22 18:29N 30°04' W 093°16'0 0.0
2018-May-22 17:59N 30°04' W 093°16'0 0.0
2018-May-22 17:29N 30°04' W 093°16'0 0.0
2018-May-22 16:58N 30°04' W 093°16'0 0.0
2018-May-22 16:28N 30°04' W 093°16'0 0.0
2018-May-22 15:58N 30°04' W 093°16'0 0.0
2018-May-22 15:28N 30°04' W 093°16'0 0.0
2018-May-22 14:58N 30°04' W 093°16'0 0.0
2018-May-22 14:28N 30°04' W 093°16'0 0.0
2018-May-22 13:58N 30°04' W 093°16'0 0.0
2018-May-22 13:28N 30°04' W 093°16'0 0.1
2018-May-22 12:59N 30°04' W 093°16'0 0.0
2018-May-22 12:28N 30°04' W 093°16'0 0.0
2018-May-22 11:58N 30°04' W 093°16'0 0.0
2018-May-22 11:25N 30°04' W 093°16'1 1.4
2018-May-22 10:52N 30°04' W 093°16'1 3.1
2018-May-22 10:30N 30°03' W 093°16'0 0.1
2018-May-22 09:58N 30°03' W 093°16'0 0.0
2018-May-22 09:28N 30°03' W 093°16'0 0.0
2018-May-22 08:58N 30°03' W 093°16'0 0.0
2018-May-22 08:28N 30°03' W 093°16'0 0.0
2018-May-22 07:58N 30°03' W 093°16'0 0.0
2018-May-22 07:28N 30°03' W 093°16'0 0.0
2018-May-22 06:58N 30°03' W 093°16'0 0.1
2018-May-22 06:28N 30°03' W 093°16'2 3.7
2018-May-22 06:00N 30°01' W 093°14'2 4.8
2018-May-22 05:30N 29°59' W 093°13'2 4.8
2018-May-22 05:00N 29°58' W 093°11'3 4.0
2018-May-22 04:21N 29°56' W 093°08'  

Dump ship's entire track history